createdAt,value
2019-03-27T00:00:48.073Z,15.40
2019-03-27T00:03:16.442Z,15.20
2019-03-27T00:05:44.823Z,15.50
2019-03-27T00:08:13.108Z,15.08
2019-03-27T00:10:41.498Z,15.63
2019-03-27T00:13:09.857Z,16.15
2019-03-27T00:15:38.420Z,15.15
2019-03-27T00:18:06.717Z,16.00
2019-03-27T00:20:35.098Z,15.70
2019-03-27T00:23:03.382Z,16.60
2019-03-27T00:25:31.696Z,15.78
2019-03-27T00:27:59.992Z,17.85
2019-03-27T00:30:28.377Z,19.17
2019-03-27T00:32:56.669Z,18.25
2019-03-27T00:35:24.992Z,20.72
2019-03-27T00:37:53.352Z,18.17
2019-03-27T00:40:21.668Z,18.98
2019-03-27T00:42:49.971Z,19.37
2019-03-27T00:45:26.533Z,19.45
2019-03-27T00:47:48.363Z,18.35
2019-03-27T00:50:16.744Z,19.15
2019-03-27T00:52:45.304Z,17.87
2019-03-27T00:55:13.620Z,19.30
2019-03-27T00:57:41.976Z,17.17
2019-03-27T01:00:19.176Z,17.35
2019-03-27T01:02:47.536Z,17.87
2019-03-27T01:05:15.856Z,17.42
2019-03-27T01:07:44.212Z,18.75
2019-03-27T01:10:12.520Z,19.23
2019-03-27T01:12:40.810Z,18.85
2019-03-27T01:15:09.121Z,19.40
2019-03-27T01:17:37.476Z,18.40
2019-03-27T01:20:06.133Z,17.75
2019-03-27T01:22:34.492Z,19.17
2019-03-27T01:25:02.806Z,17.45
2019-03-27T01:27:31.096Z,18.32
2019-03-27T01:29:59.409Z,18.67
2019-03-27T01:32:27.769Z,17.95
2019-03-27T01:34:56.080Z,18.37
2019-03-27T01:37:24.370Z,17.82
2019-03-27T01:39:52.687Z,18.92
2019-03-27T01:42:20.982Z,18.40
2019-03-27T01:44:49.324Z,18.15
2019-03-27T01:47:17.672Z,18.67
2019-03-27T01:49:45.996Z,18.82
2019-03-27T01:52:14.366Z,18.48
2019-03-27T01:54:42.724Z,19.20
2019-03-27T01:57:11.057Z,19.05
2019-03-27T01:59:39.427Z,18.55
2019-03-27T02:02:07.824Z,18.10
2019-03-27T02:04:36.193Z,19.48
2019-03-27T02:07:04.598Z,19.07
2019-03-27T02:09:32.965Z,18.82
2019-03-27T02:12:01.378Z,19.02
2019-03-27T02:14:29.736Z,18.92
2019-03-27T02:16:58.128Z,19.75
2019-03-27T02:19:26.492Z,19.20
2019-03-27T02:21:55.377Z,19.42
2019-03-27T02:24:23.736Z,20.55
2019-03-27T02:26:52.048Z,19.37
2019-03-27T02:29:20.332Z,19.10
2019-03-27T02:31:48.650Z,19.50
2019-03-27T02:34:17.021Z,20.10
2019-03-27T02:36:45.406Z,19.75
2019-03-27T02:39:13.779Z,20.92
2019-03-27T02:41:42.090Z,19.27
2019-03-27T02:44:10.453Z,19.10
2019-03-27T02:46:38.771Z,20.08
2019-03-27T02:49:07.137Z,20.40
2019-03-27T02:51:35.526Z,19.25
2019-03-27T02:54:03.881Z,18.85
2019-03-27T02:56:32.196Z,19.98
2019-03-27T02:59:00.560Z,20.25
2019-03-27T03:01:28.939Z,20.30
2019-03-27T03:03:57.376Z,20.08
2019-03-27T03:06:25.724Z,20.75
2019-03-27T03:08:54.086Z,19.87
2019-03-27T03:11:22.405Z,18.65
2019-03-27T03:13:50.776Z,18.40
2019-03-27T03:16:19.167Z,20.20
2019-03-27T03:18:47.532Z,19.12
2019-03-27T03:21:15.843Z,19.57
2019-03-27T03:23:44.205Z,18.85
2019-03-27T03:26:12.604Z,19.90
2019-03-27T03:28:40.964Z,18.82
2019-03-27T03:31:09.342Z,17.98
2019-03-27T03:33:37.705Z,19.32
2019-03-27T03:36:06.077Z,20.12
2019-03-27T03:38:34.466Z,20.85
2019-03-27T03:41:02.833Z,19.60
2019-03-27T03:43:31.213Z,21.02
2019-03-27T03:45:59.578Z,20.20
2019-03-27T03:48:27.966Z,20.70
2019-03-27T03:50:59.468Z,19.73
2019-03-27T03:53:27.781Z,20.55
2019-03-27T03:55:56.067Z,20.37
2019-03-27T03:58:24.476Z,21.00
2019-03-27T04:00:52.825Z,20.10
2019-03-27T04:03:23.253Z,19.62
2019-03-27T04:05:51.614Z,19.30
2019-03-27T04:08:20.005Z,21.27
2019-03-27T04:10:48.365Z,21.48
2019-03-27T04:13:16.685Z,22.22
2019-03-27T04:15:45.107Z,21.95
2019-03-27T04:18:13.491Z,21.85
2019-03-27T04:20:41.784Z,21.50
2019-03-27T04:23:10.342Z,21.73
2019-03-27T04:26:07.338Z,22.07
2019-03-27T04:28:08.743Z,20.55
2019-03-27T04:30:37.105Z,23.83
2019-03-27T04:33:05.416Z,20.50
2019-03-27T04:35:33.701Z,21.62
2019-03-27T04:38:02.018Z,22.10
2019-03-27T04:40:30.393Z,22.58
2019-03-27T04:42:58.776Z,22.75
2019-03-27T04:45:27.079Z,23.38
2019-03-27T04:47:55.456Z,22.30
2019-03-27T04:50:23.747Z,22.73
2019-03-27T04:52:52.131Z,23.45
2019-03-27T04:55:20.498Z,22.90
2019-03-27T04:57:48.880Z,21.77
2019-03-27T05:00:17.172Z,24.23
2019-03-27T05:02:45.455Z,23.50
2019-03-27T05:05:13.768Z,22.13
2019-03-27T05:07:42.061Z,22.32
2019-03-27T05:10:10.380Z,23.18
2019-03-27T05:12:39.049Z,24.23
2019-03-27T05:15:07.793Z,23.65
2019-03-27T05:17:45.612Z,22.13
2019-03-27T05:20:07.460Z,23.10
2019-03-27T05:22:35.752Z,22.37
2019-03-27T05:25:04.683Z,22.17
2019-03-27T05:27:36.142Z,22.93
2019-03-27T05:30:03.522Z,23.60
2019-03-27T05:32:31.884Z,22.07
2019-03-27T05:35:00.399Z,22.77
2019-03-27T05:37:28.774Z,25.32
2019-03-27T05:39:57.157Z,25.08
2019-03-27T05:42:25.515Z,26.48
2019-03-27T05:44:53.832Z,27.77
2019-03-27T05:47:22.141Z,24.20
2019-03-27T05:49:50.449Z,24.27
2019-03-27T05:52:18.742Z,24.70
2019-03-27T05:54:47.138Z,23.42
2019-03-27T05:57:15.506Z,25.00
2019-03-27T05:59:43.902Z,23.70
2019-03-27T06:02:12.260Z,25.32
2019-03-27T06:04:40.568Z,24.25
2019-03-27T06:07:08.862Z,24.27
2019-03-27T06:09:37.253Z,23.57
2019-03-27T06:12:05.544Z,23.75
2019-03-27T06:14:33.848Z,23.35
2019-03-27T06:17:02.145Z,26.80
2019-03-27T06:19:31.038Z,23.12
2019-03-27T06:21:59.404Z,23.77
2019-03-27T06:24:27.779Z,23.60
2019-03-27T06:26:56.064Z,22.58
2019-03-27T06:29:24.377Z,22.22
2019-03-27T06:31:52.659Z,21.50
2019-03-27T06:34:20.971Z,22.37
2019-03-27T06:36:49.342Z,22.65
2019-03-27T06:39:17.721Z,22.87
2019-03-27T06:41:46.086Z,22.70
2019-03-27T06:44:14.473Z,22.42
2019-03-27T06:46:42.756Z,22.45
2019-03-27T06:49:11.080Z,23.85
2019-03-27T06:51:40.507Z,22.25
2019-03-27T06:54:09.040Z,22.13
2019-03-27T06:56:37.351Z,23.12
2019-03-27T06:59:05.720Z,29.80
2019-03-27T07:01:34.097Z,25.62
2019-03-27T07:04:10.321Z,22.82
2019-03-27T07:06:32.491Z,24.95
2019-03-27T07:09:00.853Z,22.98
2019-03-27T07:11:29.165Z,23.67
2019-03-27T07:13:57.529Z,22.40
2019-03-27T07:16:25.913Z,22.30
2019-03-27T07:18:54.280Z,22.77
2019-03-27T07:21:22.599Z,21.87
2019-03-27T07:23:50.965Z,22.35
2019-03-27T07:26:19.344Z,21.17
2019-03-27T07:28:47.626Z,22.85
2019-03-27T07:31:16.007Z,21.52
2019-03-27T07:33:44.370Z,21.73
2019-03-27T07:36:12.747Z,22.48
2019-03-27T07:38:41.037Z,20.45
2019-03-27T07:41:09.348Z,21.05
2019-03-27T07:43:37.641Z,20.77
2019-03-27T07:46:05.957Z,21.23
2019-03-27T07:48:34.242Z,20.82
2019-03-27T07:51:02.701Z,18.10
2019-03-27T07:53:30.985Z,18.70
2019-03-27T07:55:59.381Z,20.95
2019-03-27T07:58:27.755Z,20.15
2019-03-27T08:00:56.137Z,19.60
2019-03-27T08:03:24.430Z,18.20
2019-03-27T08:05:52.810Z,19.07
2019-03-27T08:08:21.168Z,18.02
2019-03-27T08:10:49.491Z,18.12
2019-03-27T08:13:18.109Z,17.02
2019-03-27T08:15:46.501Z,18.45
2019-03-27T08:18:14.852Z,19.67
2019-03-27T08:20:43.170Z,17.05
2019-03-27T08:23:11.536Z,17.02
2019-03-27T08:25:39.844Z,15.38
2019-03-27T08:28:08.216Z,15.38
2019-03-27T08:30:36.580Z,16.25
2019-03-27T08:33:04.891Z,14.58
2019-03-27T08:35:33.258Z,15.10
2019-03-27T08:38:01.889Z,14.98
2019-03-27T08:40:30.259Z,14.98
2019-03-27T08:42:58.644Z,12.82
2019-03-27T08:45:27.010Z,12.47
2019-03-27T08:47:55.400Z,11.85
2019-03-27T08:50:23.767Z,11.12
2019-03-27T08:52:52.115Z,10.80
2019-03-27T08:55:20.444Z,10.32
2019-03-27T08:57:48.756Z,9.80
2019-03-27T09:00:17.049Z,10.50
2019-03-27T09:02:45.360Z,9.18
2019-03-27T09:05:13.649Z,9.18
2019-03-27T09:07:41.969Z,8.75
2019-03-27T09:10:10.581Z,7.72
2019-03-27T09:12:38.965Z,6.78
2019-03-27T09:15:08.497Z,7.33
2019-03-27T09:17:36.806Z,7.33
2019-03-27T09:20:06.108Z,7.37
2019-03-27T09:22:34.488Z,8.00
2019-03-27T09:25:02.854Z,7.05
2019-03-27T09:27:31.224Z,7.33
2019-03-27T09:29:59.521Z,7.25
2019-03-27T09:32:27.845Z,6.42
2019-03-27T09:34:56.192Z,7.72
2019-03-27T09:37:24.532Z,8.03
2019-03-27T09:39:52.820Z,8.28
2019-03-27T09:42:21.205Z,7.10
2019-03-27T09:44:49.494Z,6.00
2019-03-27T09:47:17.808Z,6.28
2019-03-27T09:49:49.939Z,7.30
2019-03-27T09:52:16.554Z,9.40
2019-03-27T09:54:44.917Z,8.25
2019-03-27T09:57:13.237Z,8.18
2019-03-27T09:59:41.515Z,4.47
2019-03-27T10:02:09.911Z,4.67
2019-03-27T10:04:38.276Z,6.58
2019-03-27T10:07:07.436Z,6.55
2019-03-27T10:09:35.733Z,7.05
2019-03-27T10:12:04.128Z,7.72
2019-03-27T10:14:32.476Z,7.67
2019-03-27T10:17:00.798Z,8.20
2019-03-27T10:19:29.152Z,7.28
2019-03-27T10:21:57.460Z,8.48
2019-03-27T10:24:25.748Z,8.63
2019-03-27T10:26:54.065Z,7.90
2019-03-27T10:29:22.363Z,8.18
2019-03-27T10:31:50.737Z,8.70
2019-03-27T10:34:19.140Z,8.93
2019-03-27T10:36:47.468Z,8.98
2019-03-27T10:39:15.780Z,9.85
2019-03-27T10:41:44.063Z,8.70
2019-03-27T10:44:12.622Z,9.53
2019-03-27T10:46:40.985Z,7.92
2019-03-27T10:49:09.293Z,8.03
2019-03-27T10:51:37.581Z,8.35
2019-03-27T10:54:05.893Z,8.88
2019-03-27T10:56:34.177Z,8.05
2019-03-27T10:59:02.493Z,8.00
2019-03-27T11:01:30.861Z,8.48
2019-03-27T11:03:59.248Z,8.75
2019-03-27T11:06:27.609Z,9.43
2019-03-27T11:08:55.912Z,9.65
2019-03-27T11:11:24.290Z,8.90
2019-03-27T11:13:52.608Z,8.45
2019-03-27T11:16:20.976Z,8.90
2019-03-27T11:18:49.366Z,8.43
2019-03-27T11:21:17.725Z,7.28
2019-03-27T11:23:46.099Z,6.17
2019-03-27T11:26:15.377Z,7.47
2019-03-27T11:28:43.705Z,6.90
2019-03-27T11:31:12.074Z,7.10
2019-03-27T11:33:40.465Z,6.12
2019-03-27T11:36:08.820Z,8.40
2019-03-27T11:38:37.645Z,7.75
2019-03-27T11:41:06.197Z,6.72
2019-03-27T11:43:34.505Z,6.67
2019-03-27T11:46:02.877Z,6.00
2019-03-27T11:48:31.269Z,5.97
2019-03-27T11:50:59.628Z,5.42
2019-03-27T11:53:28.024Z,5.65
2019-03-27T11:55:56.316Z,5.50
2019-03-27T11:58:24.606Z,5.87
2019-03-27T12:00:54.828Z,5.30
2019-03-27T12:03:22.932Z,4.83
2019-03-27T12:05:51.313Z,4.53
2019-03-27T12:08:19.603Z,5.28
2019-03-27T12:10:47.990Z,4.95
2019-03-27T12:13:16.359Z,4.75
2019-03-27T12:15:44.744Z,4.92
2019-03-27T12:18:13.093Z,4.58
2019-03-27T12:20:41.401Z,4.10
2019-03-27T12:23:09.769Z,4.40
2019-03-27T12:25:38.157Z,4.97
2019-03-27T12:28:06.526Z,4.58
2019-03-27T12:30:34.904Z,4.78
2019-03-27T12:33:03.196Z,5.00
2019-03-27T12:35:31.513Z,4.85
2019-03-27T12:38:00.194Z,4.55
2019-03-27T12:40:28.518Z,4.50
2019-03-27T12:42:56.885Z,4.03
2019-03-27T12:45:25.269Z,4.30
2019-03-27T12:47:53.624Z,4.67
2019-03-27T12:50:21.927Z,4.03
2019-03-27T12:52:50.293Z,4.25
2019-03-27T12:55:18.679Z,4.83
2019-03-27T12:57:47.040Z,4.90
2019-03-27T13:00:15.430Z,5.00
2019-03-27T13:02:43.791Z,4.58
2019-03-27T13:05:12.109Z,4.33
2019-03-27T13:07:49.768Z,4.60
2019-03-27T13:10:10.497Z,4.55
2019-03-27T13:12:38.793Z,4.75
2019-03-27T13:15:07.100Z,5.87
2019-03-27T13:17:35.470Z,4.12
2019-03-27T13:20:06.094Z,5.30
2019-03-27T13:22:34.447Z,4.70
2019-03-27T13:25:02.768Z,5.40
2019-03-27T13:27:31.132Z,4.33
2019-03-27T13:29:59.462Z,4.65
2019-03-27T13:32:27.815Z,4.15
2019-03-27T13:34:56.111Z,4.33
2019-03-27T13:37:24.483Z,5.00
2019-03-27T13:39:52.767Z,5.00
2019-03-27T13:42:21.074Z,4.97
2019-03-27T13:44:49.378Z,5.15
2019-03-27T13:47:17.696Z,5.80
2019-03-27T13:49:46.060Z,5.53
2019-03-27T13:52:14.367Z,5.22
2019-03-27T13:54:42.661Z,5.00
2019-03-27T13:57:11.045Z,13.93
2019-03-27T13:59:39.405Z,5.30
2019-03-27T14:02:07.797Z,5.37
2019-03-27T14:04:36.164Z,5.00
2019-03-27T14:07:04.468Z,5.22
2019-03-27T14:09:32.834Z,3.70
2019-03-27T14:12:01.217Z,4.75
2019-03-27T14:14:29.573Z,5.42
2019-03-27T14:16:57.953Z,4.67
2019-03-27T14:19:26.240Z,5.00
2019-03-27T14:21:55.326Z,3.98
2019-03-27T14:24:23.704Z,3.42
2019-03-27T14:26:52.018Z,4.08
2019-03-27T14:29:20.377Z,4.25
2019-03-27T14:31:48.693Z,4.12
2019-03-27T14:34:17.058Z,4.20
2019-03-27T14:36:45.433Z,3.90
2019-03-27T14:39:13.728Z,3.90
2019-03-27T14:41:42.047Z,3.92
2019-03-27T14:44:10.408Z,4.05
2019-03-27T14:46:38.805Z,4.53
2019-03-27T14:49:07.164Z,4.15
2019-03-27T14:51:35.490Z,3.92
2019-03-27T14:54:03.855Z,3.83
2019-03-27T14:56:32.241Z,3.77
2019-03-27T14:59:00.600Z,3.83
2019-03-27T15:01:28.903Z,4.22
2019-03-27T15:03:57.192Z,4.50
2019-03-27T15:06:25.494Z,4.05
2019-03-27T15:08:53.873Z,3.77
2019-03-27T15:11:22.191Z,3.90
2019-03-27T15:13:50.560Z,3.70
2019-03-27T15:16:19.193Z,3.40
2019-03-27T15:18:47.483Z,3.72
2019-03-27T15:21:15.770Z,3.77
2019-03-27T15:23:44.169Z,3.33
2019-03-27T15:26:12.528Z,3.40
2019-03-27T15:28:40.855Z,3.40
2019-03-27T15:31:19.881Z,4.47
2019-03-27T15:33:39.185Z,3.92
2019-03-27T15:36:07.539Z,3.22
2019-03-27T15:38:35.920Z,3.65
2019-03-27T15:41:04.216Z,3.67
2019-03-27T15:43:32.613Z,4.03
2019-03-27T15:46:00.972Z,3.42
2019-03-27T15:48:29.285Z,3.42
2019-03-27T15:50:59.026Z,3.40
2019-03-27T15:53:27.476Z,3.37
2019-03-27T15:55:55.772Z,3.45
2019-03-27T15:58:24.183Z,3.42
2019-03-27T16:00:52.548Z,3.30
2019-03-27T16:03:20.932Z,3.47
2019-03-27T16:05:49.216Z,3.60
2019-03-27T16:08:17.521Z,3.45
2019-03-27T16:10:45.876Z,3.47
2019-03-27T16:13:14.270Z,3.15
2019-03-27T16:15:42.629Z,3.62
2019-03-27T16:18:11.068Z,3.12
2019-03-27T16:20:39.379Z,3.17
2019-03-27T16:23:07.764Z,3.47
2019-03-27T16:25:36.310Z,3.62
2019-03-27T16:28:04.684Z,3.75
2019-03-27T16:30:32.973Z,2.92
2019-03-27T16:33:01.353Z,3.58
2019-03-27T16:35:29.645Z,3.80
2019-03-27T16:37:57.952Z,3.37
2019-03-27T16:40:46.261Z,3.40
2019-03-27T16:43:14.565Z,4.10
2019-03-27T16:45:42.923Z,3.30
2019-03-27T16:48:11.314Z,3.35
2019-03-27T16:50:39.664Z,3.52
2019-03-27T16:53:08.038Z,3.67
2019-03-27T16:55:36.321Z,3.80
2019-03-27T16:58:04.693Z,3.20
2019-03-27T17:00:32.972Z,4.67
2019-03-27T17:03:01.276Z,3.55
2019-03-27T17:05:29.561Z,3.33
2019-03-27T17:07:57.878Z,20.52
2019-03-27T17:10:26.237Z,4.30
2019-03-27T17:12:54.616Z,3.75
2019-03-27T17:15:22.976Z,3.92
2019-03-27T17:17:51.356Z,3.55
2019-03-27T17:20:19.642Z,4.37
2019-03-27T17:22:47.944Z,4.80
2019-03-27T17:25:16.225Z,3.80
2019-03-27T17:27:44.524Z,4.30
2019-03-27T17:30:13.678Z,4.60
2019-03-27T17:32:42.057Z,4.60
2019-03-27T17:35:10.412Z,3.92
2019-03-27T17:37:38.716Z,4.78
2019-03-27T17:40:07.498Z,4.70
2019-03-27T17:42:35.869Z,5.15
2019-03-27T17:45:06.164Z,6.70
2019-03-27T17:47:34.529Z,6.15
2019-03-27T17:50:02.837Z,5.75
2019-03-27T17:52:31.221Z,4.47
2019-03-27T17:54:59.523Z,4.87
2019-03-27T17:57:27.812Z,5.58
2019-03-27T17:59:56.121Z,5.33
2019-03-27T18:02:24.489Z,5.40
2019-03-27T18:04:52.805Z,6.90
2019-03-27T18:07:21.160Z,7.17
2019-03-27T18:09:49.489Z,15.32
2019-03-27T18:12:17.844Z,9.40
2019-03-27T18:14:46.179Z,5.33
2019-03-27T18:17:14.541Z,5.08
2019-03-27T18:19:42.843Z,4.65
2019-03-27T18:22:11.133Z,4.87
2019-03-27T18:24:39.447Z,5.12
2019-03-27T18:27:07.808Z,5.15
2019-03-27T18:29:36.191Z,5.60
2019-03-27T18:32:04.545Z,4.87
2019-03-27T18:34:32.848Z,5.08
2019-03-27T18:37:01.134Z,6.33
2019-03-27T18:39:29.511Z,6.33
2019-03-27T18:41:57.969Z,6.80
2019-03-27T18:44:26.274Z,5.92
2019-03-27T18:46:54.560Z,6.15
2019-03-27T18:49:22.872Z,6.28
2019-03-27T18:51:51.237Z,6.40
2019-03-27T18:54:19.637Z,6.15
2019-03-27T18:56:48.021Z,5.97
2019-03-27T18:59:16.333Z,5.62
2019-03-27T19:01:44.620Z,6.92
2019-03-27T19:04:13.001Z,8.10
2019-03-27T19:06:41.315Z,8.10
2019-03-27T19:09:09.628Z,6.90
2019-03-27T19:11:37.992Z,6.95
2019-03-27T19:14:06.402Z,6.72
2019-03-27T19:16:34.664Z,7.05
2019-03-27T19:19:03.050Z,6.78
2019-03-27T19:21:31.349Z,6.75
2019-03-27T19:24:12.453Z,6.33
2019-03-27T19:26:29.670Z,6.17
2019-03-27T19:28:58.057Z,6.50
2019-03-27T19:31:26.431Z,6.35
2019-03-27T19:33:54.793Z,7.55
2019-03-27T19:36:23.084Z,6.70
2019-03-27T19:38:51.398Z,6.50
2019-03-27T19:41:19.752Z,6.47
2019-03-27T19:43:48.064Z,7.78
2019-03-27T19:46:16.429Z,7.33
2019-03-27T19:48:44.813Z,9.15
2019-03-27T19:51:13.177Z,13.98
2019-03-27T19:53:41.491Z,14.23
2019-03-27T19:56:09.780Z,12.13
2019-03-27T19:58:38.209Z,8.15
2019-03-27T20:01:06.547Z,9.43
2019-03-27T20:03:34.949Z,10.78
2019-03-27T20:06:03.296Z,10.20
2019-03-27T20:08:31.577Z,9.00
2019-03-27T20:10:59.888Z,8.53
2019-03-27T20:13:28.251Z,7.62
2019-03-27T20:15:56.561Z,8.23
2019-03-27T20:18:24.846Z,7.42
2019-03-27T20:20:53.229Z,8.40
2019-03-27T20:23:21.588Z,7.35
2019-03-27T20:25:49.897Z,7.37
2019-03-27T20:28:18.255Z,7.35
2019-03-27T20:30:46.637Z,7.30
2019-03-27T20:33:15.005Z,7.40
2019-03-27T20:35:43.388Z,7.75
2019-03-27T20:38:11.672Z,7.42
2019-03-27T20:40:39.989Z,7.78
2019-03-27T20:43:08.347Z,11.83
2019-03-27T20:45:36.666Z,18.05
2019-03-27T20:48:05.038Z,17.70
2019-03-27T20:50:33.418Z,17.85
2019-03-27T20:53:01.778Z,16.77
2019-03-27T20:55:31.081Z,17.90
2019-03-27T20:57:59.532Z,21.48
2019-03-27T21:00:27.838Z,21.93
2019-03-27T21:02:56.129Z,21.62
2019-03-27T21:05:24.521Z,24.18
2019-03-27T21:07:52.883Z,19.87
2019-03-27T21:10:21.324Z,15.23
2019-03-27T21:12:49.688Z,11.30
2019-03-27T21:15:18.060Z,8.43
2019-03-27T21:17:46.348Z,6.97
2019-03-27T21:20:14.657Z,6.78
2019-03-27T21:22:42.956Z,6.15
2019-03-27T21:25:11.339Z,7.60
2019-03-27T21:27:39.625Z,7.12
2019-03-27T21:30:10.126Z,6.95
2019-03-27T21:32:38.485Z,6.65
2019-03-27T21:35:06.932Z,6.50
2019-03-27T21:37:35.220Z,6.72
2019-03-27T21:40:07.113Z,8.58
2019-03-27T21:42:35.476Z,9.30
2019-03-27T21:45:08.110Z,9.93
2019-03-27T21:47:36.391Z,15.65
2019-03-27T21:50:06.480Z,19.30
2019-03-27T21:52:34.849Z,13.85
2019-03-27T21:55:03.204Z,12.65
2019-03-27T21:57:31.516Z,12.53
2019-03-27T21:59:59.985Z,11.90
2019-03-27T22:02:28.480Z,17.57
2019-03-27T22:04:56.764Z,22.15
2019-03-27T22:07:25.068Z,36.73
2019-03-27T22:09:53.356Z,34.67
2019-03-27T22:12:21.669Z,35.70
2019-03-27T22:14:50.032Z,33.90
2019-03-27T22:17:18.421Z,30.75
2019-03-27T22:19:46.788Z,28.60
2019-03-27T22:22:15.176Z,25.95
2019-03-27T22:24:43.549Z,23.57
2019-03-27T22:27:11.921Z,19.02
2019-03-27T22:29:40.213Z,18.00
2019-03-27T22:32:08.601Z,12.98
2019-03-27T22:34:36.970Z,11.70
2019-03-27T22:37:05.358Z,10.13
2019-03-27T22:39:33.719Z,9.75
2019-03-27T22:42:02.103Z,8.25
2019-03-27T22:44:30.456Z,6.80
2019-03-27T22:46:58.768Z,7.78
2019-03-27T22:49:27.075Z,6.78
2019-03-27T22:51:55.457Z,7.90
2019-03-27T22:54:23.745Z,6.35
2019-03-27T22:56:52.052Z,7.08
2019-03-27T22:59:20.342Z,7.03
2019-03-27T23:01:48.649Z,6.55
2019-03-27T23:04:17.280Z,6.70
2019-03-27T23:06:45.584Z,6.67
2019-03-27T23:09:13.868Z,6.80
2019-03-27T23:11:42.156Z,6.83
2019-03-27T23:14:10.539Z,7.53
2019-03-27T23:16:38.828Z,7.15
2019-03-27T23:19:07.141Z,7.35
2019-03-27T23:21:35.503Z,7.05
2019-03-27T23:24:03.883Z,6.58
2019-03-27T23:26:32.494Z,6.92
2019-03-27T23:29:00.871Z,7.37
2019-03-27T23:31:29.225Z,6.83
2019-03-27T23:33:59.392Z,6.45
2019-03-27T23:36:27.540Z,5.60
2019-03-27T23:38:55.853Z,6.47
2019-03-27T23:41:24.216Z,6.60
2019-03-27T23:43:52.528Z,6.65
2019-03-27T23:46:20.888Z,6.42
2019-03-27T23:48:49.264Z,6.15
2019-03-27T23:51:17.544Z,5.90
2019-03-27T23:53:45.848Z,5.90
2019-03-27T23:56:16.821Z,6.30
2019-03-27T23:58:44.153Z,5.70
